sensor_id;sensor_type;location;lat;lon;timestamp;P1;durP1;ratioP1;P2;durP2;ratioP2
49854;SDS011;35752;52.164;21.244;2022-11-15T00:00:50;30.48;;;23.63;;
49854;SDS011;35752;52.164;21.244;2022-11-15T00:03:17;33.75;;;25.50;;
49854;SDS011;35752;52.164;21.244;2022-11-15T00:05:44;32.22;;;23.58;;
49854;SDS011;35752;52.164;21.244;2022-11-15T00:08:10;32.75;;;24.05;;
49854;SDS011;35752;52.164;21.244;2022-11-15T00:10:36;32.65;;;25.13;;
49854;SDS011;35752;52.164;21.244;2022-11-15T00:13:09;37.92;;;27.10;;
49854;SDS011;35752;52.164;21.244;2022-11-15T00:15:36;34.28;;;25.38;;
49854;SDS011;35752;52.164;21.244;2022-11-15T00:18:03;34.65;;;26.27;;
49854;SDS011;35752;52.164;21.244;2022-11-15T00:20:30;37.40;;;27.33;;
49854;SDS011;35752;52.164;21.244;2022-11-15T00:22:56;33.35;;;24.90;;
49854;SDS011;35752;52.164;21.244;2022-11-15T00:25:22;37.90;;;26.58;;
49854;SDS011;35752;52.164;21.244;2022-11-15T00:27:47;35.92;;;27.23;;
49854;SDS011;35752;52.164;21.244;2022-11-15T00:30:13;36.83;;;26.13;;
49854;SDS011;35752;52.164;21.244;2022-11-15T00:32:39;36.58;;;26.95;;
49854;SDS011;35752;52.164;21.244;2022-11-15T00:35:04;33.97;;;26.80;;
49854;SDS011;35752;52.164;21.244;2022-11-15T00:37:30;38.65;;;27.20;;
49854;SDS011;35752;52.164;21.244;2022-11-15T00:39:56;35.45;;;25.83;;
49854;SDS011;35752;52.164;21.244;2022-11-15T00:42:21;34.05;;;24.92;;
49854;SDS011;35752;52.164;21.244;2022-11-15T00:44:47;38.92;;;26.70;;
49854;SDS011;35752;52.164;21.244;2022-11-15T00:47:13;36.40;;;25.05;;
49854;SDS011;35752;52.164;21.244;2022-11-15T00:49:38;35.33;;;25.73;;
49854;SDS011;35752;52.164;21.244;2022-11-15T00:52:04;34.95;;;26.48;;
49854;SDS011;35752;52.164;21.244;2022-11-15T00:54:29;37.75;;;26.05;;
49854;SDS011;35752;52.164;21.244;2022-11-15T00:56:55;37.85;;;27.13;;
49854;SDS011;35752;52.164;21.244;2022-11-15T00:59:21;36.00;;;27.92;;
49854;SDS011;35752;52.164;21.244;2022-11-15T01:01:46;36.75;;;28.88;;
49854;SDS011;35752;52.164;21.244;2022-11-15T01:04:12;38.55;;;27.70;;
49854;SDS011;35752;52.164;21.244;2022-11-15T01:06:38;37.63;;;26.80;;
49854;SDS011;35752;52.164;21.244;2022-11-15T01:09:04;36.42;;;26.13;;
49854;SDS011;35752;52.164;21.244;2022-11-15T01:11:30;40.35;;;28.73;;
49854;SDS011;35752;52.164;21.244;2022-11-15T01:13:55;40.53;;;27.30;;
49854;SDS011;35752;52.164;21.244;2022-11-15T01:16:21;41.10;;;29.42;;
49854;SDS011;35752;52.164;21.244;2022-11-15T01:18:46;42.40;;;27.60;;
49854;SDS011;35752;52.164;21.244;2022-11-15T01:21:13;42.08;;;29.25;;
49854;SDS011;35752;52.164;21.244;2022-11-15T01:26:10;43.90;;;29.85;;
49854;SDS011;35752;52.164;21.244;2022-11-15T01:28:38;40.67;;;30.33;;
49854;SDS011;35752;52.164;21.244;2022-11-15T01:31:06;41.28;;;30.27;;
49854;SDS011;35752;52.164;21.244;2022-11-15T01:33:36;40.40;;;29.73;;
49854;SDS011;35752;52.164;21.244;2022-11-15T01:36:05;45.35;;;30.48;;
49854;SDS011;35752;52.164;21.244;2022-11-15T01:38:32;48.15;;;33.65;;
49854;SDS011;35752;52.164;21.244;2022-11-15T01:40:58;46.30;;;33.15;;
49854;SDS011;35752;52.164;21.244;2022-11-15T01:43:28;42.80;;;31.73;;
49854;SDS011;35752;52.164;21.244;2022-11-15T01:49:02;48.78;;;32.85;;
49854;SDS011;35752;52.164;21.244;2022-11-15T01:51:36;45.92;;;32.10;;
49854;SDS011;35752;52.164;21.244;2022-11-15T01:54:06;47.17;;;32.88;;
49854;SDS011;35752;52.164;21.244;2022-11-15T01:56:36;51.17;;;35.83;;
49854;SDS011;35752;52.164;21.244;2022-11-15T01:59:08;48.08;;;33.08;;
49854;SDS011;35752;52.164;21.244;2022-11-15T02:01:34;55.28;;;35.05;;
49854;SDS011;35752;52.164;21.244;2022-11-15T02:06:48;49.42;;;34.13;;
49854;SDS011;35752;52.164;21.244;2022-11-15T02:09:14;51.08;;;33.28;;
49854;SDS011;35752;52.164;21.244;2022-11-15T02:11:41;49.00;;;34.35;;
49854;SDS011;35752;52.164;21.244;2022-11-15T02:14:08;57.95;;;37.53;;
49854;SDS011;35752;52.164;21.244;2022-11-15T02:33:09;51.38;;;33.83;;
49854;SDS011;35752;52.164;21.244;2022-11-15T02:36:00;47.40;;;34.00;;
49854;SDS011;35752;52.164;21.244;2022-11-15T02:44:08;53.72;;;37.08;;
49854;SDS011;35752;52.164;21.244;2022-11-15T02:49:53;54.75;;;33.80;;
49854;SDS011;35752;52.164;21.244;2022-11-15T02:52:20;50.08;;;32.50;;
49854;SDS011;35752;52.164;21.244;2022-11-15T02:55:00;53.53;;;35.03;;
49854;SDS011;35752;52.164;21.244;2022-11-15T03:00:37;52.03;;;32.92;;
49854;SDS011;35752;52.164;21.244;2022-11-15T03:03:48;53.15;;;35.08;;
49854;SDS011;35752;52.164;21.244;2022-11-15T03:06:28;56.83;;;34.78;;
49854;SDS011;35752;52.164;21.244;2022-11-15T03:15:06;50.75;;;31.58;;
49854;SDS011;35752;52.164;21.244;2022-11-15T03:17:43;48.00;;;31.65;;
49854;SDS011;35752;52.164;21.244;2022-11-15T03:20:21;48.43;;;30.87;;
49854;SDS011;35752;52.164;21.244;2022-11-15T03:22:47;47.28;;;30.92;;
49854;SDS011;35752;52.164;21.244;2022-11-15T03:25:18;46.95;;;30.20;;
49854;SDS011;35752;52.164;21.244;2022-11-15T03:27:48;48.83;;;31.98;;
49854;SDS011;35752;52.164;21.244;2022-11-15T03:30:17;53.33;;;32.87;;
49854;SDS011;35752;52.164;21.244;2022-11-15T03:32:45;42.35;;;29.77;;
49854;SDS011;35752;52.164;21.244;2022-11-15T03:35:17;48.55;;;31.10;;
49854;SDS011;35752;52.164;21.244;2022-11-15T03:37:53;42.83;;;29.92;;
49854;SDS011;35752;52.164;21.244;2022-11-15T03:40:58;48.30;;;30.80;;
49854;SDS011;35752;52.164;21.244;2022-11-15T03:46:37;44.97;;;29.17;;
49854;SDS011;35752;52.164;21.244;2022-11-15T03:49:05;48.53;;;31.58;;
49854;SDS011;35752;52.164;21.244;2022-11-15T03:54:04;52.30;;;32.20;;
49854;SDS011;35752;52.164;21.244;2022-11-15T03:56:30;48.92;;;31.15;;
49854;SDS011;35752;52.164;21.244;2022-11-15T03:58:56;49.38;;;32.17;;
49854;SDS011;35752;52.164;21.244;2022-11-15T04:01:21;46.38;;;30.45;;
49854;SDS011;35752;52.164;21.244;2022-11-15T04:03:47;47.08;;;31.45;;
49854;SDS011;35752;52.164;21.244;2022-11-15T04:06:13;42.55;;;28.65;;
49854;SDS011;35752;52.164;21.244;2022-11-15T04:08:38;45.35;;;28.73;;
49854;SDS011;35752;52.164;21.244;2022-11-15T04:11:04;41.35;;;27.35;;
49854;SDS011;35752;52.164;21.244;2022-11-15T04:13:30;45.25;;;28.27;;
49854;SDS011;35752;52.164;21.244;2022-11-15T04:15:55;45.05;;;28.05;;
49854;SDS011;35752;52.164;21.244;2022-11-15T04:18:21;46.97;;;30.63;;
49854;SDS011;35752;52.164;21.244;2022-11-15T04:20:47;48.88;;;29.27;;
49854;SDS011;35752;52.164;21.244;2022-11-15T04:23:31;53.67;;;31.23;;
49854;SDS011;35752;52.164;21.244;2022-11-15T04:26:16;51.25;;;30.98;;
49854;SDS011;35752;52.164;21.244;2022-11-15T04:28:44;51.13;;;32.15;;
49854;SDS011;35752;52.164;21.244;2022-11-15T04:31:28;53.38;;;30.60;;
49854;SDS011;35752;52.164;21.244;2022-11-15T04:33:54;51.70;;;31.88;;
49854;SDS011;35752;52.164;21.244;2022-11-15T04:36:20;54.72;;;32.08;;
49854;SDS011;35752;52.164;21.244;2022-11-15T04:39:05;51.92;;;32.20;;
49854;SDS011;35752;52.164;21.244;2022-11-15T04:41:31;57.28;;;31.88;;
49854;SDS011;35752;52.164;21.244;2022-11-15T04:43:56;53.75;;;32.28;;
49854;SDS011;35752;52.164;21.244;2022-11-15T04:46:22;53.35;;;32.83;;
49854;SDS011;35752;52.164;21.244;2022-11-15T04:48:49;52.03;;;31.13;;
49854;SDS011;35752;52.164;21.244;2022-11-15T04:51:15;50.67;;;32.10;;
49854;SDS011;35752;52.164;21.244;2022-11-15T04:53:41;53.35;;;32.30;;
49854;SDS011;35752;52.164;21.244;2022-11-15T04:56:07;42.80;;;29.17;;
49854;SDS011;35752;52.164;21.244;2022-11-15T04:58:33;48.95;;;29.52;;
49854;SDS011;35752;52.164;21.244;2022-11-15T05:01:06;47.53;;;30.45;;
49854;SDS011;35752;52.164;21.244;2022-11-15T05:03:37;46.60;;;29.70;;
49854;SDS011;35752;52.164;21.244;2022-11-15T05:06:21;48.28;;;30.00;;
49854;SDS011;35752;52.164;21.244;2022-11-15T05:08:47;51.00;;;30.67;;
49854;SDS011;35752;52.164;21.244;2022-11-15T05:11:13;50.28;;;30.95;;
49854;SDS011;35752;52.164;21.244;2022-11-15T05:13:38;52.20;;;29.67;;
49854;SDS011;35752;52.164;21.244;2022-11-15T05:16:04;51.17;;;30.48;;
49854;SDS011;35752;52.164;21.244;2022-11-15T05:18:30;51.63;;;30.20;;
49854;SDS011;35752;52.164;21.244;2022-11-15T05:20:56;53.42;;;30.95;;
49854;SDS011;35752;52.164;21.244;2022-11-15T05:23:27;52.38;;;31.13;;
49854;SDS011;35752;52.164;21.244;2022-11-15T05:25:53;52.72;;;32.00;;
49854;SDS011;35752;52.164;21.244;2022-11-15T05:28:18;51.67;;;31.42;;
49854;SDS011;35752;52.164;21.244;2022-11-15T05:30:44;52.92;;;31.95;;
49854;SDS011;35752;52.164;21.244;2022-11-15T05:33:09;52.33;;;31.13;;
49854;SDS011;35752;52.164;21.244;2022-11-15T05:35:40;56.80;;;33.13;;
49854;SDS011;35752;52.164;21.244;2022-11-15T05:38:10;55.72;;;33.28;;
49854;SDS011;35752;52.164;21.244;2022-11-15T05:40:36;53.67;;;31.90;;
49854;SDS011;35752;52.164;21.244;2022-11-15T05:43:01;52.80;;;31.58;;
49854;SDS011;35752;52.164;21.244;2022-11-15T05:45:30;55.35;;;31.40;;
49854;SDS011;35752;52.164;21.244;2022-11-15T05:47:57;58.72;;;33.22;;
49854;SDS011;35752;52.164;21.244;2022-11-15T05:50:25;56.58;;;33.75;;
49854;SDS011;35752;52.164;21.244;2022-11-15T05:52:51;58.35;;;32.08;;
49854;SDS011;35752;52.164;21.244;2022-11-15T05:55:17;59.53;;;34.28;;
49854;SDS011;35752;52.164;21.244;2022-11-15T05:57:43;59.85;;;34.90;;
49854;SDS011;35752;52.164;21.244;2022-11-15T06:00:09;57.47;;;33.08;;
49854;SDS011;35752;52.164;21.244;2022-11-15T06:02:36;59.03;;;33.92;;
49854;SDS011;35752;52.164;21.244;2022-11-15T06:05:01;64.55;;;34.63;;
49854;SDS011;35752;52.164;21.244;2022-11-15T06:07:28;56.70;;;33.30;;
49854;SDS011;35752;52.164;21.244;2022-11-15T06:09:54;56.90;;;31.50;;
49854;SDS011;35752;52.164;21.244;2022-11-15T06:12:20;53.70;;;31.48;;
49854;SDS011;35752;52.164;21.244;2022-11-15T06:14:45;63.33;;;33.47;;
49854;SDS011;35752;52.164;21.244;2022-11-15T06:17:11;60.85;;;33.03;;
49854;SDS011;35752;52.164;21.244;2022-11-15T06:19:37;69.47;;;35.22;;
49854;SDS011;35752;52.164;21.244;2022-11-15T06:22:02;60.03;;;34.55;;
49854;SDS011;35752;52.164;21.244;2022-11-15T06:24:28;69.07;;;35.80;;
49854;SDS011;35752;52.164;21.244;2022-11-15T06:26:53;59.55;;;33.13;;
49854;SDS011;35752;52.164;21.244;2022-11-15T06:29:19;61.28;;;32.78;;
49854;SDS011;35752;52.164;21.244;2022-11-15T06:31:45;56.72;;;33.55;;
49854;SDS011;35752;52.164;21.244;2022-11-15T06:34:11;58.17;;;32.42;;
49854;SDS011;35752;52.164;21.244;2022-11-15T06:36:36;65.55;;;34.17;;
49854;SDS011;35752;52.164;21.244;2022-11-15T06:39:02;63.08;;;34.47;;
49854;SDS011;35752;52.164;21.244;2022-11-15T06:41:28;64.22;;;34.17;;
49854;SDS011;35752;52.164;21.244;2022-11-15T06:43:54;70.10;;;36.13;;
49854;SDS011;35752;52.164;21.244;2022-11-15T06:46:20;64.65;;;34.53;;
49854;SDS011;35752;52.164;21.244;2022-11-15T06:48:45;62.70;;;35.40;;
49854;SDS011;35752;52.164;21.244;2022-11-15T06:51:11;64.88;;;34.38;;
49854;SDS011;35752;52.164;21.244;2022-11-15T06:53:37;67.45;;;34.70;;
49854;SDS011;35752;52.164;21.244;2022-11-15T06:56:04;72.32;;;36.72;;
49854;SDS011;35752;52.164;21.244;2022-11-15T06:58:31;64.90;;;34.10;;
49854;SDS011;35752;52.164;21.244;2022-11-15T07:01:04;62.20;;;33.78;;
49854;SDS011;35752;52.164;21.244;2022-11-15T07:03:33;64.90;;;35.28;;
49854;SDS011;35752;52.164;21.244;2022-11-15T07:06:00;63.45;;;34.17;;
49854;SDS011;35752;52.164;21.244;2022-11-15T07:08:27;66.03;;;32.88;;
49854;SDS011;35752;52.164;21.244;2022-11-15T07:10:54;63.17;;;31.75;;
49854;SDS011;35752;52.164;21.244;2022-11-15T07:13:24;58.58;;;31.20;;
49854;SDS011;35752;52.164;21.244;2022-11-15T07:15:50;71.38;;;31.80;;
49854;SDS011;35752;52.164;21.244;2022-11-15T07:18:16;67.13;;;33.85;;
49854;SDS011;35752;52.164;21.244;2022-11-15T07:20:42;71.97;;;33.50;;
49854;SDS011;35752;52.164;21.244;2022-11-15T07:23:07;59.13;;;30.30;;
49854;SDS011;35752;52.164;21.244;2022-11-15T07:25:33;58.95;;;30.65;;
49854;SDS011;35752;52.164;21.244;2022-11-15T07:27:59;61.65;;;31.25;;
49854;SDS011;35752;52.164;21.244;2022-11-15T07:30:26;57.88;;;31.00;;
49854;SDS011;35752;52.164;21.244;2022-11-15T07:32:56;58.03;;;30.50;;
49854;SDS011;35752;52.164;21.244;2022-11-15T07:35:23;51.72;;;27.27;;
49854;SDS011;35752;52.164;21.244;2022-11-15T07:38:00;60.78;;;30.48;;
49854;SDS011;35752;52.164;21.244;2022-11-15T07:40:27;54.80;;;29.65;;
49854;SDS011;35752;52.164;21.244;2022-11-15T07:42:59;56.78;;;29.35;;
49854;SDS011;35752;52.164;21.244;2022-11-15T07:45:26;52.88;;;27.67;;
49854;SDS011;35752;52.164;21.244;2022-11-15T07:47:52;52.92;;;26.88;;
49854;SDS011;35752;52.164;21.244;2022-11-15T07:50:18;53.40;;;29.42;;
49854;SDS011;35752;52.164;21.244;2022-11-15T07:52:44;55.05;;;27.73;;
49854;SDS011;35752;52.164;21.244;2022-11-15T07:55:10;50.17;;;25.88;;
49854;SDS011;35752;52.164;21.244;2022-11-15T07:57:36;53.95;;;26.48;;
49854;SDS011;35752;52.164;21.244;2022-11-15T08:00:03;46.78;;;26.63;;
49854;SDS011;35752;52.164;21.244;2022-11-15T08:02:30;48.05;;;25.95;;
49854;SDS011;35752;52.164;21.244;2022-11-15T08:04:56;45.67;;;25.15;;
49854;SDS011;35752;52.164;21.244;2022-11-15T08:07:21;53.92;;;28.77;;
49854;SDS011;35752;52.164;21.244;2022-11-15T08:09:47;49.28;;;27.25;;
49854;SDS011;35752;52.164;21.244;2022-11-15T08:12:13;50.22;;;26.50;;
49854;SDS011;35752;52.164;21.244;2022-11-15T08:14:39;55.33;;;27.52;;
49854;SDS011;35752;52.164;21.244;2022-11-15T08:17:05;51.88;;;28.35;;
49854;SDS011;35752;52.164;21.244;2022-11-15T08:19:31;51.97;;;27.80;;
49854;SDS011;35752;52.164;21.244;2022-11-15T08:21:56;55.30;;;28.23;;
49854;SDS011;35752;52.164;21.244;2022-11-15T08:24:22;48.28;;;27.30;;
49854;SDS011;35752;52.164;21.244;2022-11-15T08:26:48;51.33;;;27.08;;
49854;SDS011;35752;52.164;21.244;2022-11-15T08:29:13;56.92;;;28.02;;
49854;SDS011;35752;52.164;21.244;2022-11-15T08:31:39;56.42;;;29.20;;
49854;SDS011;35752;52.164;21.244;2022-11-15T08:34:05;52.47;;;29.65;;
49854;SDS011;35752;52.164;21.244;2022-11-15T08:36:31;52.97;;;27.17;;
49854;SDS011;35752;52.164;21.244;2022-11-15T08:38:57;48.90;;;27.63;;
49854;SDS011;35752;52.164;21.244;2022-11-15T08:41:26;48.97;;;28.08;;
49854;SDS011;35752;52.164;21.244;2022-11-15T08:43:55;46.40;;;27.35;;
49854;SDS011;35752;52.164;21.244;2022-11-15T08:46:21;45.95;;;26.48;;
49854;SDS011;35752;52.164;21.244;2022-11-15T08:48:47;46.28;;;25.00;;
49854;SDS011;35752;52.164;21.244;2022-11-15T08:51:13;42.53;;;25.88;;
49854;SDS011;35752;52.164;21.244;2022-11-15T08:53:38;44.35;;;25.55;;
49854;SDS011;35752;52.164;21.244;2022-11-15T08:56:08;42.67;;;24.40;;
49854;SDS011;35752;52.164;21.244;2022-11-15T08:58:35;47.55;;;25.98;;
49854;SDS011;35752;52.164;21.244;2022-11-15T09:01:02;48.17;;;27.83;;
49854;SDS011;35752;52.164;21.244;2022-11-15T09:03:29;46.67;;;26.90;;
49854;SDS011;35752;52.164;21.244;2022-11-15T09:05:58;43.85;;;26.52;;
49854;SDS011;35752;52.164;21.244;2022-11-15T09:10:53;57.33;;;26.33;;
49854;SDS011;35752;52.164;21.244;2022-11-15T09:13:19;48.78;;;26.30;;
49854;SDS011;35752;52.164;21.244;2022-11-15T09:15:45;41.03;;;25.92;;
49854;SDS011;35752;52.164;21.244;2022-11-15T09:18:10;49.75;;;28.02;;
49854;SDS011;35752;52.164;21.244;2022-11-15T09:20:36;48.90;;;28.05;;
49854;SDS011;35752;52.164;21.244;2022-11-15T09:23:02;52.28;;;27.80;;
49854;SDS011;35752;52.164;21.244;2022-11-15T09:25:29;50.00;;;27.55;;
49854;SDS011;35752;52.164;21.244;2022-11-15T09:27:55;49.97;;;27.70;;
49854;SDS011;35752;52.164;21.244;2022-11-15T09:30:21;43.17;;;26.10;;
49854;SDS011;35752;52.164;21.244;2022-11-15T09:32:48;45.83;;;27.27;;
49854;SDS011;35752;52.164;21.244;2022-11-15T09:35:13;47.83;;;27.35;;
49854;SDS011;35752;52.164;21.244;2022-11-15T09:37:39;44.70;;;26.08;;
49854;SDS011;35752;52.164;21.244;2022-11-15T09:40:05;47.80;;;27.92;;
49854;SDS011;35752;52.164;21.244;2022-11-15T09:45:19;48.72;;;29.27;;
49854;SDS011;35752;52.164;21.244;2022-11-15T09:50:58;43.28;;;25.80;;
49854;SDS011;35752;52.164;21.244;2022-11-15T09:53:29;45.08;;;26.55;;
49854;SDS011;35752;52.164;21.244;2022-11-15T09:56:02;43.35;;;27.75;;
49854;SDS011;35752;52.164;21.244;2022-11-15T10:01:06;41.85;;;25.33;;
49854;SDS011;35752;52.164;21.244;2022-11-15T10:03:39;38.67;;;23.95;;
49854;SDS011;35752;52.164;21.244;2022-11-15T10:06:13;37.00;;;23.70;;
49854;SDS011;35752;52.164;21.244;2022-11-15T10:11:19;31.77;;;22.10;;
49854;SDS011;35752;52.164;21.244;2022-11-15T10:13:48;41.70;;;24.47;;
49854;SDS011;35752;52.164;21.244;2022-11-15T10:19:01;41.53;;;26.15;;
49854;SDS011;35752;52.164;21.244;2022-11-15T10:22:10;40.72;;;24.63;;
49854;SDS011;35752;52.164;21.244;2022-11-15T10:24:34;40.80;;;26.02;;
49854;SDS011;35752;52.164;21.244;2022-11-15T10:27:07;40.87;;;25.73;;
49854;SDS011;35752;52.164;21.244;2022-11-15T10:29:36;45.40;;;25.85;;
49854;SDS011;35752;52.164;21.244;2022-11-15T10:32:07;44.13;;;26.15;;
49854;SDS011;35752;52.164;21.244;2022-11-15T10:34:35;38.33;;;24.60;;
49854;SDS011;35752;52.164;21.244;2022-11-15T10:37:01;43.08;;;26.45;;
49854;SDS011;35752;52.164;21.244;2022-11-15T10:39:27;35.85;;;23.45;;
49854;SDS011;35752;52.164;21.244;2022-11-15T10:41:52;38.50;;;24.95;;
49854;SDS011;35752;52.164;21.244;2022-11-15T10:44:20;36.55;;;24.83;;
49854;SDS011;35752;52.164;21.244;2022-11-15T10:46:48;38.05;;;25.77;;
49854;SDS011;35752;52.164;21.244;2022-11-15T10:49:30;40.05;;;25.10;;
49854;SDS011;35752;52.164;21.244;2022-11-15T10:54:56;42.47;;;27.55;;
49854;SDS011;35752;52.164;21.244;2022-11-15T10:57:48;38.22;;;25.33;;
49854;SDS011;35752;52.164;21.244;2022-11-15T11:02:58;44.60;;;27.15;;
49854;SDS011;35752;52.164;21.244;2022-11-15T11:05:33;41.78;;;27.10;;
49854;SDS011;35752;52.164;21.244;2022-11-15T11:08:04;42.03;;;26.33;;
49854;SDS011;35752;52.164;21.244;2022-11-15T11:11:02;38.97;;;24.58;;
49854;SDS011;35752;52.164;21.244;2022-11-15T11:13:38;42.28;;;25.95;;
49854;SDS011;35752;52.164;21.244;2022-11-15T11:24:24;38.58;;;26.10;;
49854;SDS011;35752;52.164;21.244;2022-11-15T11:48:48;45.22;;;27.58;;
49854;SDS011;35752;52.164;21.244;2022-11-15T11:51:34;42.70;;;27.58;;
49854;SDS011;35752;52.164;21.244;2022-11-15T11:54:14;38.35;;;25.52;;
49854;SDS011;35752;52.164;21.244;2022-11-15T11:56:48;41.13;;;27.02;;
49854;SDS011;35752;52.164;21.244;2022-11-15T12:01:50;41.75;;;27.92;;
49854;SDS011;35752;52.164;21.244;2022-11-15T12:04:29;38.83;;;26.90;;
49854;SDS011;35752;52.164;21.244;2022-11-15T12:11:56;41.45;;;28.13;;
49854;SDS011;35752;52.164;21.244;2022-11-15T12:17:25;41.40;;;27.95;;
49854;SDS011;35752;52.164;21.244;2022-11-15T12:19:57;40.80;;;27.42;;
49854;SDS011;35752;52.164;21.244;2022-11-15T12:28:19;41.03;;;27.98;;
49854;SDS011;35752;52.164;21.244;2022-11-15T12:31:02;37.85;;;27.00;;
49854;SDS011;35752;52.164;21.244;2022-11-15T12:33:41;41.38;;;26.73;;
49854;SDS011;35752;52.164;21.244;2022-11-15T12:41:24;43.95;;;28.08;;
49854;SDS011;35752;52.164;21.244;2022-11-15T12:43:57;39.17;;;28.35;;
49854;SDS011;35752;52.164;21.244;2022-11-15T13:02:22;42.08;;;28.02;;
49854;SDS011;35752;52.164;21.244;2022-11-15T13:30:54;55.88;;;31.55;;
49854;SDS011;35752;52.164;21.244;2022-11-15T13:33:36;50.13;;;30.60;;
49854;SDS011;35752;52.164;21.244;2022-11-15T13:36:14;51.85;;;32.00;;
49854;SDS011;35752;52.164;21.244;2022-11-15T13:38:44;52.63;;;31.40;;
49854;SDS011;35752;52.164;21.244;2022-11-15T13:41:25;50.38;;;30.80;;
49854;SDS011;35752;52.164;21.244;2022-11-15T13:43:53;49.07;;;32.00;;
49854;SDS011;35752;52.164;21.244;2022-11-15T13:48:58;50.65;;;30.80;;
49854;SDS011;35752;52.164;21.244;2022-11-15T13:51:33;51.70;;;33.38;;
49854;SDS011;35752;52.164;21.244;2022-11-15T13:54:14;49.67;;;31.35;;
49854;SDS011;35752;52.164;21.244;2022-11-15T13:56:44;51.20;;;32.85;;
49854;SDS011;35752;52.164;21.244;2022-11-15T13:59:47;59.83;;;35.30;;
49854;SDS011;35752;52.164;21.244;2022-11-15T14:02:17;53.70;;;33.60;;
49854;SDS011;35752;52.164;21.244;2022-11-15T14:04:49;52.05;;;33.38;;
49854;SDS011;35752;52.164;21.244;2022-11-15T14:07:18;53.92;;;33.75;;
49854;SDS011;35752;52.164;21.244;2022-11-15T14:09:48;51.63;;;34.30;;
49854;SDS011;35752;52.164;21.244;2022-11-15T14:14:52;59.08;;;34.72;;
49854;SDS011;35752;52.164;21.244;2022-11-15T14:17:32;53.50;;;34.17;;
49854;SDS011;35752;52.164;21.244;2022-11-15T14:19:59;56.70;;;34.63;;
49854;SDS011;35752;52.164;21.244;2022-11-15T14:22:26;55.88;;;34.03;;
49854;SDS011;35752;52.164;21.244;2022-11-15T14:27:44;62.95;;;34.92;;
49854;SDS011;35752;52.164;21.244;2022-11-15T14:30:29;62.33;;;35.40;;
49854;SDS011;35752;52.164;21.244;2022-11-15T14:32:55;61.22;;;35.70;;
49854;SDS011;35752;52.164;21.244;2022-11-15T14:35:22;60.80;;;37.25;;
49854;SDS011;35752;52.164;21.244;2022-11-15T14:37:48;59.00;;;37.40;;
49854;SDS011;35752;52.164;21.244;2022-11-15T14:40:15;58.47;;;35.33;;
49854;SDS011;35752;52.164;21.244;2022-11-15T14:42:46;57.53;;;35.47;;
49854;SDS011;35752;52.164;21.244;2022-11-15T14:45:18;54.53;;;33.85;;
49854;SDS011;35752;52.164;21.244;2022-11-15T14:47:45;54.25;;;34.45;;
49854;SDS011;35752;52.164;21.244;2022-11-15T14:50:12;54.42;;;34.65;;
49854;SDS011;35752;52.164;21.244;2022-11-15T14:52:42;61.67;;;35.78;;
49854;SDS011;35752;52.164;21.244;2022-11-15T14:55:16;55.40;;;35.20;;
49854;SDS011;35752;52.164;21.244;2022-11-15T14:57:45;57.17;;;35.20;;
49854;SDS011;35752;52.164;21.244;2022-11-15T15:00:11;52.60;;;34.25;;
49854;SDS011;35752;52.164;21.244;2022-11-15T15:02:38;55.88;;;33.10;;
49854;SDS011;35752;52.164;21.244;2022-11-15T15:05:16;56.63;;;34.92;;
49854;SDS011;35752;52.164;21.244;2022-11-15T15:07:43;55.17;;;35.58;;
49854;SDS011;35752;52.164;21.244;2022-11-15T15:10:09;59.95;;;37.03;;
49854;SDS011;35752;52.164;21.244;2022-11-15T15:12:35;57.85;;;35.58;;
49854;SDS011;35752;52.164;21.244;2022-11-15T15:15:01;60.75;;;36.58;;
49854;SDS011;35752;52.164;21.244;2022-11-15T15:17:28;57.03;;;36.45;;
49854;SDS011;35752;52.164;21.244;2022-11-15T15:19:53;66.38;;;38.00;;
49854;SDS011;35752;52.164;21.244;2022-11-15T15:22:19;62.63;;;35.45;;
49854;SDS011;35752;52.164;21.244;2022-11-15T15:24:50;69.00;;;37.25;;
49854;SDS011;35752;52.164;21.244;2022-11-15T15:27:16;63.70;;;38.42;;
49854;SDS011;35752;52.164;21.244;2022-11-15T15:29:42;58.92;;;36.50;;
49854;SDS011;35752;52.164;21.244;2022-11-15T15:32:08;64.63;;;37.67;;
49854;SDS011;35752;52.164;21.244;2022-11-15T15:34:34;63.60;;;36.80;;
49854;SDS011;35752;52.164;21.244;2022-11-15T15:39:48;61.92;;;37.85;;
49854;SDS011;35752;52.164;21.244;2022-11-15T15:42:14;67.10;;;38.90;;
49854;SDS011;35752;52.164;21.244;2022-11-15T15:44:40;72.75;;;38.38;;
49854;SDS011;35752;52.164;21.244;2022-11-15T15:47:39;67.47;;;41.60;;
49854;SDS011;35752;52.164;21.244;2022-11-15T15:49:57;64.10;;;38.97;;
49854;SDS011;35752;52.164;21.244;2022-11-15T15:52:23;68.18;;;41.55;;
49854;SDS011;35752;52.164;21.244;2022-11-15T15:54:50;67.55;;;39.35;;
49854;SDS011;35752;52.164;21.244;2022-11-15T15:57:15;70.65;;;42.15;;
49854;SDS011;35752;52.164;21.244;2022-11-15T15:59:41;62.10;;;36.20;;
49854;SDS011;35752;52.164;21.244;2022-11-15T16:02:16;62.53;;;35.45;;
49854;SDS011;35752;52.164;21.244;2022-11-15T16:04:41;60.10;;;34.70;;
49854;SDS011;35752;52.164;21.244;2022-11-15T16:07:12;60.15;;;37.63;;
49854;SDS011;35752;52.164;21.244;2022-11-15T16:09:42;61.30;;;35.42;;
49854;SDS011;35752;52.164;21.244;2022-11-15T16:12:30;62.80;;;35.15;;
49854;SDS011;35752;52.164;21.244;2022-11-15T16:14:58;61.30;;;35.45;;
49854;SDS011;35752;52.164;21.244;2022-11-15T16:17:26;60.92;;;36.92;;
49854;SDS011;35752;52.164;21.244;2022-11-15T16:19:55;70.20;;;38.45;;
49854;SDS011;35752;52.164;21.244;2022-11-15T16:22:20;62.30;;;35.50;;
49854;SDS011;35752;52.164;21.244;2022-11-15T16:24:46;59.90;;;36.30;;
49854;SDS011;35752;52.164;21.244;2022-11-15T16:27:13;66.28;;;39.17;;
49854;SDS011;35752;52.164;21.244;2022-11-15T16:29:43;69.18;;;39.45;;
49854;SDS011;35752;52.164;21.244;2022-11-15T16:32:10;65.05;;;39.97;;
49854;SDS011;35752;52.164;21.244;2022-11-15T16:34:36;73.97;;;41.95;;
49854;SDS011;35752;52.164;21.244;2022-11-15T16:37:02;76.10;;;43.78;;
49854;SDS011;35752;52.164;21.244;2022-11-15T16:39:28;71.13;;;40.30;;
49854;SDS011;35752;52.164;21.244;2022-11-15T16:41:58;71.30;;;41.03;;
49854;SDS011;35752;52.164;21.244;2022-11-15T16:44:24;74.40;;;40.70;;
49854;SDS011;35752;52.164;21.244;2022-11-15T16:46:50;72.25;;;39.75;;
49854;SDS011;35752;52.164;21.244;2022-11-15T16:49:20;71.90;;;38.53;;
49854;SDS011;35752;52.164;21.244;2022-11-15T16:51:46;68.97;;;38.80;;
49854;SDS011;35752;52.164;21.244;2022-11-15T16:54:13;71.85;;;40.03;;
49854;SDS011;35752;52.164;21.244;2022-11-15T16:56:40;79.18;;;41.35;;
49854;SDS011;35752;52.164;21.244;2022-11-15T16:59:06;79.13;;;41.35;;
49854;SDS011;35752;52.164;21.244;2022-11-15T17:01:42;73.28;;;39.60;;
49854;SDS011;35752;52.164;21.244;2022-11-15T17:04:14;79.18;;;43.53;;
49854;SDS011;35752;52.164;21.244;2022-11-15T17:06:45;79.05;;;43.45;;
49854;SDS011;35752;52.164;21.244;2022-11-15T17:09:18;76.53;;;41.20;;
49854;SDS011;35752;52.164;21.244;2022-11-15T17:11:48;78.00;;;41.05;;
49854;SDS011;35752;52.164;21.244;2022-11-15T17:14:14;77.28;;;42.63;;